Oscar Dyson — WTEP — position and weather

sailwx.info

Track history (hours):
 
Tides and Currents Weather Stations Pressure Air Temp Water Temp Dewpoint Dewpoint Depression Visibility Wind Speed Wind Dir Waves Ship Positions

Oceanographic research ship Oscar Dyson (USA)

Ship's website: http://www.moc.noaa.gov/od/

Detailed information on ship capabilities available from University of Delaware's Ocean Information Center and ARCUS's ALIAS (Arctic Logistics Information and Support) project.

Last reported at 2015-May-06 07:59 UTC. Time now 2015-May-06 09:28 UTC.
Position N 54°24' W 169°42'.

Type: Ship. MMSI: 369959000.

Wind from 090 at 12 knots

Barometer 1008.0 mb
Air temperature 5.3 ° C
Water temperature 4.9 ° C

Date/timePositionNaut miles runAvg speedWind from/ knotsBaromVisibWave heightAir tempDewpointWater temp
2015-May-06 07:59N 54°24' W 169°42'1414.1 090 / 121008.0 5.3 4.9
2015-May-06 07:00N 54°36' W 169°30'0 0.0 100 / 101007.4 5.5 3.4 4.9
2015-May-06 06:59N 54°36' W 169°30'9 9.3 110 / 101007.7 5.5 4.8
2015-May-06 06:00N 54°42' W 169°18'0 0.0 090 / 91007.2 5.4 3.7 4.9
2015-May-06 05:59N 54°42' W 169°18'0 0.0 080 / 81007.6 5.6 4.9
2015-May-06 05:00N 54°42' W 169°18'0 0.0 090 / 111006.7 5.5 3.7 4.9
2015-May-06 04:59N 54°42' W 169°18'7 7.0 090 / 111006.9 5.5 4.9
2015-May-06 04:00N 54°48' W 169°12'6360.0 090 / 131006.6 6.0 3.5 5.0
2015-May-06 03:59N 54°42' W 169°12'1414.1 100 / 131006.8 6.0 4.9
2015-May-06 03:00N 54°54' W 169°00'6360.0 100 / 91006.6 5.6 3.3 4.9
2015-May-06 02:59N 54°48' W 169°00'1212.7 090 / 111006.8 5.8 4.8
2015-May-06 02:00N 55°00' W 168°54'6360.0 080 / 81006.5 6.0 3.5 4.9
2015-May-06 01:59N 54°54' W 168°54'0 0.0 090 / 81006.7 6.0 4.9
2015-May-06 00:59N 54°54' W 168°54'9 9.3 090 / 81006.5 6.0 5.0
2015-May-06 00:00N 55°00' W 168°42'9 9.0 110 / 91006.6 5.4 0.5 5.4 -4.9
2015-May-05 22:59N 55°06' W 168°30'6 6.1 130 / 111006.6 5.5 4.9
2015-May-05 22:00N 55°12' W 168°30'6360.0 110 / 91006.3 5.4 3.7 5.0
2015-May-05 21:59N 55°06' W 168°30'19 9.7 120 / 91006.5 5.4 5.0
2015-May-05 20:00N 55°24' W 168°18'6360.0 100 / 91005.9 5.1 3.6 4.5
2015-May-05 19:59N 55°18' W 168°18'9 9.1 100 / 81006.2 5.2 4.6
2015-May-05 18:59N 55°24' W 168°06'7 6.9 130 / 111006.1 5.1 5.0
2015-May-05 17:59N 55°18' W 168°12'7 7.0 110 / 131005.8 5.1 4.8
2015-May-05 17:00N 55°24' W 168°06'0 0.0 100 / 141005.4 5.3 3.2 5.0
2015-May-05 16:59N 55°24' W 168°06'1211.8 110 / 141005.6 5.1 5.0
2015-May-05 15:59N 55°30' W 167°48'1615.7 120 / 111005.7 4.9 5.0
2015-May-05 14:59N 55°42' W 167°30'1212.2 140 / 71005.6 4.8 4.6
2015-May-05 14:00N 55°54' W 167°30'6 6.0 100 / 61005.1 4.7 4.0 4.5
2015-May-05 13:00N 56°00' W 167°30'1212.5 150 / 61005.2 4.8 4.1 4.6
2015-May-05 12:00N 56°12' W 167°36'1212.5 100 / 161005.0 4.5 4.4
2015-May-05 11:00N 56°24' W 167°42'1212.4 080 / 201005.3 4.5 4.2
2015-May-05 10:00N 56°36' W 167°48'1212.4 080 / 191005.3 4.4 4.2
2015-May-05 09:00N 56°48' W 167°54'1212.4 070 / 211005.5 4.0 3.2 3.6
2015-May-05 08:00N 57°00' W 168°00'1212.4 080 / 221006.0 3.5 2.6 2.9
2015-May-05 07:00N 57°12' W 168°06'6 6.0 080 / 221006.2 3.3 2.8
2015-May-05 06:00N 57°18' W 168°06'6 3.0 090 / 211006.5 3.3 2.3 2.6
2015-May-05 04:00N 57°12' W 168°06'3 3.3 090 / 201006.2 4.7 3.4 2.9
2015-May-05 03:00N 57°12' W 168°00'3 3.3 090 / 81006.1 3.8 2.9
2015-May-05 02:00N 57°12' W 167°54'3215.8 090 / 211006.7 4.6 2.7 2.5
2015-May-05 00:00N 57°24' W 167°00'3 3.2 090 / 241008.3 5.4 1.5 4.4 2.4-2.2
2015-May-04 23:00N 57°24' W 166°54'7 6.8 090 / 61008.7 3.6 2.3 2.6
2015-May-04 22:00N 57°30' W 166°48'3 3.2 080 / 221008.9 3.4 2.1 2.2
2015-May-04 21:00N 57°30' W 166°42'3 3.2 080 / 221009.8 3.2 2.1
2015-May-04 20:00N 57°30' W 166°48'7 6.8 070 / 251010.3 2.6 1.9 2.2
2015-May-04 19:00N 57°36' W 166°54'7 6.8 080 / 231010.6 2.2 1.8 2.3
2015-May-04 18:00N 57°30' W 166°48'3 3.2 080 / 241011.0 0.3 1.5 1.9 -2.3
2015-May-04 17:00N 57°30' W 166°54'6 3.0 070 / 231011.4 1.6 1.0 2.2
2015-May-04 15:00N 57°24' W 166°54'6 6.5 070 / 241011.4 1.4 0.7 2.5
2015-May-04 14:00N 57°24' W 166°42'3 3.2 080 / 261012.0 1.5 0.9 2.6
2015-May-04 13:00N 57°24' W 166°36'7 6.8 080 / 241012.5 1.4 0.6 2.8
2015-May-04 12:00N 57°18' W 166°30'0 0.0 080 / 151013.0 1.5 2.8
2015-May-04 11:00N 57°18' W 166°30'9 8.8 070 / 241014.3 1.3 0.8 2.6
2015-May-04 10:00N 57°24' W 166°42'6 6.5 080 / 211014.7 1.3 0.7 2.8
2015-May-04 09:00N 57°24' W 166°54'1111.4 080 / 201015.5 1.4 0.6 2.5
2015-May-04 08:00N 57°30' W 167°12'10 9.7 080 / 181015.9 1.7 0.8 2.3
2015-May-04 07:00N 57°30' W 167°30'1111.4 090 / 201015.9 1.8 0.5 1.9
2015-May-04 06:00N 57°36' W 167°48'1312.9 090 / 241015.8 5.4 1.0 1.8 0.8-1.8
2015-May-04 05:00N 57°36' W 168°12'1111.3 090 / 201016.5 0.9-0.1 1.9
2015-May-04 04:00N 57°42' W 168°30'10 9.6 090 / 201016.9 1.3 1.3
2015-May-04 03:00N 57°42' W 168°48'1111.3 090 / 221017.5 0.1-0.8 1.2
2015-May-04 02:00N 57°48' W 169°06'1111.3 090 / 201017.9 -0.5-1.4 1.1
2015-May-04 01:00N 57°54' W 169°24'6 6.4 080 / 191018.7 -0.6-2.0 0.9
2015-May-04 00:00N 57°54' W 169°36'1414.1 100 / 191019.310.8 1.0-0.0-1.8-0.5
2015-May-03 23:00N 58°00' W 170°00'6 6.4 090 / 191019.6 -0.3-1.6 0.1
2015-May-03 22:00N 58°00' W 170°12'1212.0 080 / 171020.3 0.1-1.5-0.3
2015-May-03 21:00N 58°12' W 170°12'3 3.2 080 / 171020.8 -0.0-1.4-0.9
2015-May-03 20:00N 58°12' W 170°06'3 3.2 090 / 141021.1 -0.4-1.7-0.8
2015-May-03 19:00N 58°12' W 170°00'0 0.0 070 / 131021.3 -0.7-1.8-0.6
2015-May-03 18:00N 58°12' W 170°00'7 6.8 090 / 151021.3 -1.5-2.5-0.9
2015-May-03 17:00N 58°06' W 169°54'1111.3 080 / 121021.5 0.3-1.3-0.9
2015-May-03 16:00N 58°00' W 169°36'11 5.6 090 / 131021.5 -0.1-0.9 0.5
2015-May-03 14:00N 57°54' W 169°18'3 3.2 100 / 111022.0 0.8-1.1 1.6
2015-May-03 13:00N 57°54' W 169°12'1717.0 100 / 111022.2 0.6 1.0
2015-May-03 12:00N 58°00' W 168°42'0 0.0 100 / 91022.427.0 1.0 1.2-0.9-1.3
2015-May-03 11:00N 58°00' W 168°42'12 6.2 100 / 81023.0 0.3-0.9 1.5
2015-May-03 09:00N 57°48' W 168°48'0 0.0 100 / 91023.310.8 1.8 -1.9
2015-May-03 08:00N 57°48' W 168°48'9 8.8 080 / 81022.8 1.2-1.2 2.3
2015-May-03 07:00N 57°42' W 168°36'6 6.4 060 / 51023.0 0.9-1.1 2.1
2015-May-03 06:00N 57°42' W 168°24'1312.8 360 / 31022.7 1.2-1.4 2.5
2015-May-03 05:00N 57°42' W 168°48'9 8.8 060 / 11022.4 1.6-2.9 2.9
2015-May-03 04:00N 57°36' W 169°00'1111.4 080 / 11022.7 3.6-2.2 3.2
2015-May-03 03:00N 57°30' W 168°42'3 3.2 050 / 21022.5 2.2-2.0 3.7
2015-May-03 02:00N 57°30' W 168°36'10 9.7 360 / 31021.9 1.9-1.7 3.5
2015-May-03 01:00N 57°30' W 168°18'10 9.7 300 / 41022.0 1.8-2.7 3.0
2015-May-03 00:00N 57°30' W 168°00'6 6.4 340 / 41021.9 2.6-1.6 2.9
2015-May-02 23:00N 57°30' W 167°48'10 9.7 1021.6 2.5-3.1 2.1
2015-May-02 22:00N 57°30' W 167°30'6 6.4 340 / 81021.3 1.7-1.1 2.1
2015-May-02 21:00N 57°30' W 167°18'10 9.7 330 / 81021.1 1.9-0.6 2.3
2015-May-02 20:00N 57°30' W 167°00'9 8.8 350 / 21020.6 3.3 0.8 2.5
2015-May-02 19:00N 57°24' W 166°48'6 6.5 330 / 51020.2 2.6-0.1 2.5
2015-May-02 18:00N 57°24' W 166°36'6 6.5 330 / 51019.7 2.6 0.3 2.6
2015-May-02 17:00N 57°24' W 166°24'7 6.8 280 / 21019.2 2.5 0.7 2.6
2015-May-02 16:00N 57°18' W 166°18'1313.0 320 / 41018.8 2.6 1.2 3.0
2015-May-02 15:00N 57°18' W 165°54'7 6.8 230 / 21018.910.8 0.5 3.8 1.2-3.1
2015-May-02 14:00N 57°12' W 165°48'15 7.7 250 / 41018.8 2.9 0.7 3.1
2015-May-02 12:00N 57°00' W 165°30'7 6.5 190 / 11018.510.8 0.5 3.3 1.8 3.3
2015-May-02 11:00N 57°00' W 165°18'1413.7 180 / 51018.7 3.4 1.7 3.8
2015-May-02 10:00N 56°48' W 165°06'1211.5 130 / 21018.4 3.6 1.0 4.2
2015-May-02 09:00N 56°54' W 164°48'3 3.3 100 / 21018.310.8 4.5 0.9-4.0
2015-May-02 08:00N 56°54' W 164°42'9 8.9 100 / 31018.2 3.6 0.4 4.2
2015-May-02 07:00N 56°48' W 164°30'10 9.9 060 / 11018.0 3.9 0.1 4.5
2015-May-02 06:00N 56°48' W 164°12'7 6.6 090 / 31017.3 3.9-0.0 4.9
2015-May-02 05:00N 56°48' W 164°00'0 0.0 110 / 21017.3 4.1 0.2 4.4
2015-May-02 04:00N 56°48' W 164°00'3 3.3 120 / 31017.1 5.2 1.0 4.1
2015-May-02 03:00N 56°48' W 164°06'0 0.0 220 / 11016.910.8 1.0 5.6-1.8 5.1
2015-May-02 02:00N 56°48' W 164°06'3 3.3 150 / 31016.7 5.3-1.1 4.2
2015-May-02 01:00N 56°48' W 164°12'0 0.0 160 / 31016.8 5.0-1.6 4.4
2015-May-02 00:00N 56°48' W 164°12'6 6.0 170 / 51017.0 4.9-1.4 4.2
2015-May-01 23:00N 56°54' W 164°12'6 6.0 140 / 51016.8 4.0 0.5 4.2
2015-May-01 22:00N 56°48' W 164°12'0 0.0 120 / 51016.5 4.5 0.9 4.1
2015-May-01 21:00N 56°48' W 164°12'3 3.3 100 / 31016.2 4.3 0.6 4.2
2015-May-01 20:00N 56°48' W 164°06'3 3.3 080 / 41016.2 5.3 0.4 3.9
2015-May-01 19:00N 56°48' W 164°12'3 3.3 030 / 21015.6 4.5 0.6 3.9
2015-May-01 18:00N 56°48' W 164°06'0 0.0 020 / 41015.7 3.3 0.6 3.8
2015-May-01 17:00N 56°48' W 164°06'0 0.0 240 / 81015.3 3.6-0.4 3.7
2015-May-01 16:00N 56°48' W 164°06'9 8.9 230 / 101014.9 3.5-0.4 3.7
2015-May-01 15:00N 56°42' W 163°54'7 6.8 230 / 71014.9 3.2 0.6 3.8
2015-May-01 14:00N 56°36' W 163°48'1212.0 290 / 61014.7 2.8 0.6 4.1
2015-May-01 13:00N 56°48' W 163°48'7 6.8 270 / 81014.3 2.9-0.0 3.9
2015-May-01 12:00N 56°54' W 163°42'1414.4 270 / 91014.410.8 0.5 3.8 0.5-3.8
2015-May-01 11:00N 57°00' W 164°06'7 6.8 260 / 81014.2 2.4 0.6 3.8
2015-May-01 10:00N 56°54' W 164°12'6 6.0 260 / 81013.9 2.2 0.5 3.8
2015-May-01 09:00N 56°48' W 164°12'0 0.0 270 / 91013.810.8 0.5 3.0 -3.9
2015-May-01 08:00N 56°48' W 164°12'7 6.6 190 / 41013.2 3.3 0.7 3.9
2015-May-01 07:00N 56°48' W 164°00'3 3.3 240 / 21013.1 3.2 0.4 3.9
2015-May-01 06:00N 56°48' W 163°54'3 3.3 230 / 21012.5 5.4 3.2 -4.0
2015-May-01 05:00N 56°48' W 164°00'0 0.0 300 / 71012.0 3.3 0.1 4.0
2015-May-01 03:00N 56°48' W 164°00'0 0.0 300 / 101011.6 3.5 0.7 3.9
2015-May-01 02:00N 56°48' W 164°00'7 6.8 250 / 71011.5 4.7 0.6 4.0
2015-May-01 01:00N 56°54' W 164°06'7 6.8 250 / 91011.1 4.0 1.1 3.9
2015-May-01 00:00N 56°48' W 164°00'0 0.0 230 / 81011.2 3.8 1.6 3.8
2015-Apr-30 23:00N 56°48' W 164°00'0 0.0 230 / 81011.1 4.1 0.9 3.8
2015-Apr-30 22:00N 56°48' W 164°00'1413.7 250 / 81010.9 3.6 0.8 3.6
2015-Apr-30 21:00N 56°36' W 164°12'1212.4 220 / 81010.5 3.9 1.3 3.8
2015-Apr-30 20:00N 56°24' W 164°18'1212.5 200 / 81010.2 4.2 1.5 4.3
2015-Apr-30 19:00N 56°12' W 164°24'1212.5 250 / 51010.1 3.2 4.3
2015-Apr-30 18:00N 56°00' W 164°30'2613.0 240 / 71009.8 3.7 0.9 4.2
2015-Apr-30 16:00N 55°36' W 164°48'1413.8 240 / 121009.0 3.7 0.7 4.4
2015-Apr-30 15:00N 55°24' W 165°00'1413.8 270 / 111008.8 3.2 4.4
2015-Apr-30 14:00N 55°12' W 165°12'2613.1 250 / 131008.7 3.9 1.0 4.5
2015-Apr-30 12:00N 54°48' W 165°30'3207.5 250 / 131008.710.8 1.0 4.5 1.6-5.0
2015-Apr-30 11:59N 54°48' W 165°36'1212.2 250 / 171008.7 4.1 5.0
2015-Apr-30 11:00N 54°42' W 165°54'7415.9 240 / 171008.4 4.2 1.2 4.9
2015-Apr-30 10:59N 54°36' W 165°48'2613.2 250 / 171008.6 4.3 4.9
2015-Apr-30 09:00N 54°12' W 166°06'1212.1 240 / 191008.310.8 1.0 4.5 -4.9
2015-Apr-30 08:00N 54°06' W 166°24'7417.5 250 / 181008.0 3.4 1.0 4.9
2015-Apr-30 07:59N 54°00' W 166°18'9 9.4 260 / 181008.2 3.8 4.9
2015-Apr-30 07:00N 53°54' W 166°30'0 0.0 190 / 41007.6 3.8 0.1 5.3
2015-Apr-30 05:00N 53°54' W 166°30'0 0.0 240 / 91006.2 4.5-0.6 6.0
2015-Apr-30 04:00N 53°54' W 166°30'0 0.0 240 / 111005.6 5.7-0.4 5.3
2015-Apr-30 03:00N 53°54' W 166°30'1212.2 290 / 61005.3 5.6-0.4 5.0
2015-Apr-30 02:00N 54°00' W 166°48'1212.2 270 / 201005.1 3.9 1.4 4.9
2015-Apr-30 01:00N 54°06' W 167°06'0 0.0 270 / 191004.5 3.8 1.7 5.0
2015-Apr-30 00:00N 54°06' W 167°06'7 7.0 270 / 181004.1 4.2 1.9 5.0
2015-Apr-29 23:00N 54°00' W 167°00'0 0.0 250 / 211003.8 4.2 1.9 5.0
2015-Apr-29 22:00N 54°00' W 167°00'0 0.0 250 / 181003.7 4.5 2.2 5.0
2015-Apr-29 21:00N 54°00' W 167°00'0 0.0 260 / 201003.3 3.9 1.5 5.0
2015-Apr-29 20:00N 54°00' W 167°00'0 0.0 250 / 191002.9 3.6 1.9 4.9
2015-Apr-29 19:00N 54°00' W 167°00'4 3.5 280 / 151002.5 3.8 2.0 4.9
2015-Apr-29 18:00N 54°00' W 166°54'4 3.5 260 / 191002.0 5.4 1.5 3.7 1.4-4.9
2015-Apr-29 17:00N 54°00' W 167°00'7 7.0 260 / 181001.1 4.1 2.2 4.9
2015-Apr-29 16:00N 54°06' W 167°06'9 9.3 270 / 181000.5 4.0 2.2 4.9
2015-Apr-29 15:00N 54°00' W 166°54'0 0.0 250 / 191000.1 5.4 1.0 4.8 2.1-4.9
2015-Apr-29 14:00N 54°00' W 166°54'7 7.1 270 / 18999.7 4.6 1.3 4.9
2015-Apr-29 13:00N 54°00' W 166°42'4 3.5 270 / 21998.8 4.6 1.9 4.6
2015-Apr-29 12:00N 54°00' W 166°36'7 7.0 330 / 15997.7 5.0 0.4 4.9
2015-Apr-29 11:00N 53°54' W 166°30'0 0.0 310 / 13996.9 4.9 1.0 4.9
2015-Apr-29 10:00N 53°54' W 166°30'0 0.0 320 / 17996.2 4.7 1.5 5.0
2015-Apr-29 09:00N 53°54' W 166°30'0 0.0 310 / 18994.7 5.0 1.4 4.9
2015-Apr-29 08:00N 53°54' W 166°30'0 0.0 270 / 5993.7 5.8 1.3 4.9
2015-Apr-29 07:00N 53°54' W 166°30'0 0.0 020 / 5992.6 5.4 2.0 5.0
2015-Apr-29 06:00N 53°54' W 166°30'0 0.0 991.6 5.7 1.5 5.1
2015-Apr-29 05:00N 53°54' W 166°30'4 3.5 240 / 4991.0 5.8 2.2 5.0
2015-Apr-29 04:00N 53°54' W 166°24'4 3.5 240 / 11990.2 6.1 1.2 5.3
2015-Apr-29 03:00N 53°54' W 166°18'9 9.3 200 / 13989.6 5.4 0.5 6.3 1.7-5.4
2015-Apr-29 02:00N 53°48' W 166°30'0 0.0 230 / 11989.3 5.6 1.5 5.5
2015-Apr-29 01:00N 53°48' W 166°30'7 7.0 240 / 11989.1 5.6 1.8 5.4
2015-Apr-29 00:00N 53°54' W 166°24'7 7.0 250 / 10988.9 5.7 1.9 5.2
2015-Apr-28 23:00N 54°00' W 166°18'1312.5 150 / 8988.9 5.2 3.7 4.9
2015-Apr-28 22:00N 54°12' W 166°12'1413.9 140 / 23989.8 5.0 1.2 4.8
2015-Apr-28 21:00N 54°24' W 166°00'1413.9 140 / 30991.2 3.3 1.7 4.8
2015-Apr-28 20:00N 54°36' W 165°48'9 9.2 140 / 25993.4 4.0 1.9 4.6
2015-Apr-28 19:00N 54°42' W 165°36'1615.9 140 / 27994.7 3.1 1.8 4.8
2015-Apr-28 18:00N 54°54' W 165°18'1413.9 150 / 24996.6 5.4 1.0 3.2 1.7-4.8
2015-Apr-28 17:00N 54°42' W 165°30'1413.9 160 / 26997.6 3.4 1.8 4.8
2015-Apr-28 16:00N 54°30' W 165°42'1413.9 170 / 20998.5 3.5 1.7 4.6
2015-Apr-28 15:00N 54°18' W 165°54'0 0.0 160 / 18999.3 4.5 1.1 4.8
2015-Apr-28 14:00N 54°18' W 165°54'7 6.9 170 / 151000.5 4.4 1.2 4.8
2015-Apr-28 13:00N 54°24' W 166°00'0 0.0 160 / 111001.3 4.4 0.6 4.6
2015-Apr-28 12:00N 54°24' W 166°00'0 0.0 180 / 81002.510.8 4.0 1.1 4.6
2015-Apr-28 11:00N 54°24' W 166°00'7 6.9 220 / 81003.1 3.9 0.7 4.6
2015-Apr-28 10:00N 54°30' W 166°06'7 6.9 210 / 121003.9 3.6 0.8 4.8
2015-Apr-28 09:00N 54°36' W 166°12'6 6.0 260 / 121004.1 3.2 0.7 4.8
2015-Apr-28 08:00N 54°42' W 166°12'7 6.9 250 / 131004.3 3.9 0.4 4.9
2015-Apr-28 07:00N 54°48' W 166°06'1212.0 250 / 171004.4 3.9 0.9 4.8
2015-Apr-28 06:00N 54°42' W 165°48'6 6.0 260 / 131004.3 5.4 1.5 4.2 1.5-4.8
2015-Apr-28 05:00N 54°48' W 165°48'7 6.9 260 / 131004.5 3.7 0.8 4.5
2015-Apr-28 04:00N 54°48' W 165°36'12 6.0 240 / 111004.5 3.9 1.7 4.8
2015-Apr-28 02:00N 54°54' W 165°18'9 9.1 240 / 151004.0 4.3 2.3 4.8
2015-Apr-28 01:00N 55°00' W 165°06'3 3.4 250 / 161004.1 4.2 2.1 4.8
2015-Apr-28 00:00N 55°00' W 165°00'7 6.9 230 / 151004.3 4.5 2.0 4.8
2015-Apr-27 23:00N 54°54' W 164°54'7 6.9 250 / 141004.7 4.5 2.5 4.8
2015-Apr-27 22:00N 54°48' W 164°48'7 6.9 220 / 121005.0 4.0 2.7 4.6
2015-Apr-27 21:00N 54°42' W 164°42'9 9.2 230 / 151004.9 2.2 1.0 4.4 2.2 4.8
2015-Apr-27 20:00N 54°36' W 164°54'18 9.0 200 / 151004.8 4.5 2.8 4.6
2015-Apr-27 18:00N 54°18' W 164°54'7 7.0 140 / 91004.9 3.6 2.1 4.8
2015-Apr-27 17:00N 54°18' W 164°42'0 0.0 140 / 81004.9 3.5 1.9 4.8
2015-Apr-27 16:00N 54°18' W 164°42'0 0.0 160 / 71005.0 2.9 1.5 4.8
2015-Apr-27 15:00N 54°18' W 164°42'9 9.2 180 / 91005.3 2.9 1.3 4.8
2015-Apr-27 14:00N 54°24' W 164°54'7 7.0 160 / 131005.5 3.6 1.8 4.8
2015-Apr-27 13:00N 54°24' W 165°06'7 6.9 190 / 141005.6 3.8 1.9 4.8
2015-Apr-27 12:00N 54°18' W 165°12'7 7.0 170 / 141006.0 4.1 1.4 4.8
2015-Apr-27 11:00N 54°18' W 165°24'4 3.5 180 / 141006.1 4.1 0.6 4.8
2015-Apr-27 10:00N 54°18' W 165°18'1414.0 170 / 141007.0 3.9 0.2 4.8
2015-Apr-27 09:00N 54°18' W 164°54'1414.0 160 / 61008.1 3.6 1.0 4.8
2015-Apr-27 08:00N 54°18' W 164°30'1515.2 290 / 71008.8 3.2 0.8 4.7
2015-Apr-27 07:00N 54°24' W 164°06'1212.1 240 / 121009.0 3.6 1.1 4.8
2015-Apr-27 06:00N 54°30' W 163°48'1010.5 260 / 121009.1 3.5 2.0 5.0
2015-Apr-27 05:00N 54°30' W 163°30'1413.9 250 / 121009.3 4.9 2.4 5.2
2015-Apr-27 04:00N 54°30' W 163°06'1212.0 140 / 51010.4 5.3 2.7 5.4
2015-Apr-27 03:00N 54°36' W 162°48'1413.9 350 / 221010.3 4.1 1.3 4.9
2015-Apr-27 02:00N 54°48' W 162°36'1212.0 300 / 161010.5 4.0 1.5 4.6
2015-Apr-27 01:00N 54°54' W 162°18'1212.0 320 / 191010.7 3.8 1.4 4.8
2015-Apr-27 00:00N 55°00' W 162°00'7 6.9 310 / 221009.7 5.5 1.3 4.9
2015-Apr-26 23:00N 55°06' W 161°54'7 6.9 300 / 281010.1 5.1 1.0 4.5
2015-Apr-26 22:00N 55°06' W 161°42'0 0.0 270 / 71010.4 7.5 1.4 4.6
2015-Apr-26 21:00N 55°06' W 161°42'0 0.0 020 / 171010.3 8.8 0.5 4.5
2015-Apr-26 20:00N 55°06' W 161°42'6 6.0 350 / 51010.6 8.1-0.0 4.4
2015-Apr-26 19:00N 55°12' W 161°42'6 6.0 310 / 121010.5 6.1 0.6 4.4
2015-Apr-26 18:00N 55°06' W 161°42'3 3.4 300 / 171010.6 5.5 0.7 4.4
2015-Apr-26 17:00N 55°06' W 161°36'0 0.0 300 / 111010.7 4.8 0.1 4.4
2015-Apr-26 16:00N 55°06' W 161°36'3 3.4 270 / 161010.6 4.5 0.2 4.4
2015-Apr-26 15:00N 55°06' W 161°30'7 6.9 270 / 191010.4 0.5 4.8-1.0-4.5
2015-Apr-26 14:00N 55°06' W 161°42'0 0.0 310 / 191009.8 4.8-0.5 4.4
2015-Apr-26 13:00N 55°06' W 161°42'6 6.0 310 / 131009.7 5.3-1.2 4.5
2015-Apr-26 12:00N 55°12' W 161°42'0 0.0 330 / 141009.2 5.1 0.2 4.4
2015-Apr-26 11:00N 55°12' W 161°42'3 3.4 360 / 251008.4 5.1-0.1 4.4
2015-Apr-26 10:00N 55°12' W 161°36'1010.3 010 / 321008.6 4.4 0.8 4.3
2015-Apr-26 09:00N 55°12' W 161°18'1211.9 350 / 211008.6 3.4 0.9 4.5
2015-Apr-26 08:00N 55°18' W 161°00'   350 / 201008.0 4.0 0.8 4.9
Track history (hours):
 
Tides and Currents Weather Stations Pressure Air Temp Water Temp Dewpoint Dewpoint Depression Visibility Wind Speed Wind Dir Waves Ship Positions

Oceanographic research ship Oscar Dyson (USA)

Ship's website: http://www.moc.noaa.gov/od/

Detailed information on ship capabilities available from University of Delaware's Ocean Information Center and ARCUS's ALIAS (Arctic Logistics Information and Support) project.

Last reported at 2015-May-06 07:59 UTC. Time now 2015-May-06 09:28 UTC.
Position N 54°24' W 169°42'.

Type: Ship. MMSI: 369959000.

Wind from 090 at 12 knots

Barometer 1008.0 mb
Air temperature 5.3 ° C
Water temperature 4.9 ° C

Date/timePositionNaut miles runAvg speedWind from/ knotsBaromVisibWave heightAir tempDewpointWater temp
2015-May-06 07:59N 54°24' W 169°42'1414.1 090 / 121008.0 5.3 4.9
2015-May-06 07:00N 54°36' W 169°30'0 0.0 100 / 101007.4 5.5 3.4 4.9
2015-May-06 06:59N 54°36' W 169°30'9 9.3 110 / 101007.7 5.5 4.8
2015-May-06 06:00N 54°42' W 169°18'0 0.0 090 / 91007.2 5.4 3.7 4.9
2015-May-06 05:59N 54°42' W 169°18'0 0.0 080 / 81007.6 5.6 4.9
2015-May-06 05:00N 54°42' W 169°18'0 0.0 090 / 111006.7 5.5 3.7 4.9
2015-May-06 04:59N 54°42' W 169°18'7 7.0 090 / 111006.9 5.5 4.9
2015-May-06 04:00N 54°48' W 169°12'6360.0 090 / 131006.6 6.0 3.5 5.0
2015-May-06 03:59N 54°42' W 169°12'1414.1 100 / 131006.8 6.0 4.9
2015-May-06 03:00N 54°54' W 169°00'6360.0 100 / 91006.6 5.6 3.3 4.9
2015-May-06 02:59N 54°48' W 169°00'1212.7 090 / 111006.8 5.8 4.8
2015-May-06 02:00N 55°00' W 168°54'6360.0 080 / 81006.5 6.0 3.5 4.9
2015-May-06 01:59N 54°54' W 168°54'0 0.0 090 / 81006.7 6.0 4.9
2015-May-06 00:59N 54°54' W 168°54'9 9.3 090 / 81006.5 6.0 5.0
2015-May-06 00:00N 55°00' W 168°42'9 9.0 110 / 91006.6 5.4 0.5 5.4 -4.9
2015-May-05 22:59N 55°06' W 168°30'6 6.1 130 / 111006.6 5.5 4.9
2015-May-05 22:00N 55°12' W 168°30'6360.0 110 / 91006.3 5.4 3.7 5.0
2015-May-05 21:59N 55°06' W 168°30'19 9.7 120 / 91006.5 5.4 5.0
2015-May-05 20:00N 55°24' W 168°18'6360.0 100 / 91005.9 5.1 3.6 4.5
2015-May-05 19:59N 55°18' W 168°18'9 9.1 100 / 81006.2 5.2 4.6
2015-May-05 18:59N 55°24' W 168°06'7 6.9 130 / 111006.1 5.1 5.0
2015-May-05 17:59N 55°18' W 168°12'7 7.0 110 / 131005.8 5.1 4.8
2015-May-05 17:00N 55°24' W 168°06'0 0.0 100 / 141005.4 5.3 3.2 5.0
2015-May-05 16:59N 55°24' W 168°06'1211.8 110 / 141005.6 5.1 5.0
2015-May-05 15:59N 55°30' W 167°48'1615.7 120 / 111005.7 4.9 5.0
2015-May-05 14:59N 55°42' W 167°30'1212.2 140 / 71005.6 4.8 4.6
2015-May-05 14:00N 55°54' W 167°30'6 6.0 100 / 61005.1 4.7 4.0 4.5
2015-May-05 13:00N 56°00' W 167°30'1212.5 150 / 61005.2 4.8 4.1 4.6
2015-May-05 12:00N 56°12' W 167°36'1212.5 100 / 161005.0 4.5 4.4
2015-May-05 11:00N 56°24' W 167°42'1212.4 080 / 201005.3 4.5 4.2
2015-May-05 10:00N 56°36' W 167°48'1212.4 080 / 191005.3 4.4 4.2
2015-May-05 09:00N 56°48' W 167°54'1212.4 070 / 211005.5 4.0 3.2 3.6
2015-May-05 08:00N 57°00' W 168°00'1212.4 080 / 221006.0 3.5 2.6 2.9
2015-May-05 07:00N 57°12' W 168°06'6 6.0 080 / 221006.2 3.3 2.8
2015-May-05 06:00N 57°18' W 168°06'6 3.0 090 / 211006.5 3.3 2.3 2.6
2015-May-05 04:00N 57°12' W 168°06'3 3.3 090 / 201006.2 4.7 3.4 2.9
2015-May-05 03:00N 57°12' W 168°00'3 3.3 090 / 81006.1 3.8 2.9
2015-May-05 02:00N 57°12' W 167°54'3215.8 090 / 211006.7 4.6 2.7 2.5
2015-May-05 00:00N 57°24' W 167°00'3 3.2 090 / 241008.3 5.4 1.5 4.4 2.4-2.2
2015-May-04 23:00N 57°24' W 166°54'7 6.8 090 / 61008.7 3.6 2.3 2.6
2015-May-04 22:00N 57°30' W 166°48'3 3.2 080 / 221008.9 3.4 2.1 2.2
2015-May-04 21:00N 57°30' W 166°42'3 3.2 080 / 221009.8 3.2 2.1
2015-May-04 20:00N 57°30' W 166°48'7 6.8 070 / 251010.3 2.6 1.9 2.2
2015-May-04 19:00N 57°36' W 166°54'7 6.8 080 / 231010.6 2.2 1.8 2.3
2015-May-04 18:00N 57°30' W 166°48'3 3.2 080 / 241011.0 0.3 1.5 1.9 -2.3
2015-May-04 17:00N 57°30' W 166°54'6 3.0 070 / 231011.4 1.6 1.0 2.2
2015-May-04 15:00N 57°24' W 166°54'6 6.5 070 / 241011.4 1.4 0.7 2.5
2015-May-04 14:00N 57°24' W 166°42'3 3.2 080 / 261012.0 1.5 0.9 2.6
2015-May-04 13:00N 57°24' W 166°36'7 6.8 080 / 241012.5 1.4 0.6 2.8
2015-May-04 12:00N 57°18' W 166°30'0 0.0 080 / 151013.0 1.5 2.8
2015-May-04 11:00N 57°18' W 166°30'9 8.8 070 / 241014.3 1.3 0.8 2.6
2015-May-04 10:00N 57°24' W 166°42'6 6.5 080 / 211014.7 1.3 0.7 2.8
2015-May-04 09:00N 57°24' W 166°54'1111.4 080 / 201015.5 1.4 0.6 2.5
2015-May-04 08:00N 57°30' W 167°12'10 9.7 080 / 181015.9 1.7 0.8 2.3
2015-May-04 07:00N 57°30' W 167°30'1111.4 090 / 201015.9 1.8 0.5 1.9
2015-May-04 06:00N 57°36' W 167°48'1312.9 090 / 241015.8 5.4 1.0 1.8 0.8-1.8
2015-May-04 05:00N 57°36' W 168°12'1111.3 090 / 201016.5 0.9-0.1 1.9
2015-May-04 04:00N 57°42' W 168°30'10 9.6 090 / 201016.9 1.3 1.3
2015-May-04 03:00N 57°42' W 168°48'1111.3 090 / 221017.5 0.1-0.8 1.2
2015-May-04 02:00N 57°48' W 169°06'1111.3 090 / 201017.9 -0.5-1.4 1.1
2015-May-04 01:00N 57°54' W 169°24'6 6.4 080 / 191018.7 -0.6-2.0 0.9
2015-May-04 00:00N 57°54' W 169°36'1414.1 100 / 191019.310.8 1.0-0.0-1.8-0.5
2015-May-03 23:00N 58°00' W 170°00'6 6.4 090 / 191019.6 -0.3-1.6 0.1
2015-May-03 22:00N 58°00' W 170°12'1212.0 080 / 171020.3 0.1-1.5-0.3
2015-May-03 21:00N 58°12' W 170°12'3 3.2 080 / 171020.8 -0.0-1.4-0.9
2015-May-03 20:00N 58°12' W 170°06'3 3.2 090 / 141021.1 -0.4-1.7-0.8
2015-May-03 19:00N 58°12' W 170°00'0 0.0 070 / 131021.3 -0.7-1.8-0.6
2015-May-03 18:00N 58°12' W 170°00'7 6.8 090 / 151021.3 -1.5-2.5-0.9
2015-May-03 17:00N 58°06' W 169°54'1111.3 080 / 121021.5 0.3-1.3-0.9
2015-May-03 16:00N 58°00' W 169°36'11 5.6 090 / 131021.5 -0.1-0.9 0.5
2015-May-03 14:00N 57°54' W 169°18'3 3.2 100 / 111022.0 0.8-1.1 1.6
2015-May-03 13:00N 57°54' W 169°12'1717.0 100 / 111022.2 0.6 1.0
2015-May-03 12:00N 58°00' W 168°42'0 0.0 100 / 91022.427.0 1.0 1.2-0.9-1.3
2015-May-03 11:00N 58°00' W 168°42'12 6.2 100 / 81023.0 0.3-0.9 1.5
2015-May-03 09:00N 57°48' W 168°48'0 0.0 100 / 91023.310.8 1.8 -1.9
2015-May-03 08:00N 57°48' W 168°48'9 8.8 080 / 81022.8 1.2-1.2 2.3
2015-May-03 07:00N 57°42' W 168°36'6 6.4 060 / 51023.0 0.9-1.1 2.1
2015-May-03 06:00N 57°42' W 168°24'1312.8 360 / 31022.7 1.2-1.4 2.5
2015-May-03 05:00N 57°42' W 168°48'9 8.8 060 / 11022.4 1.6-2.9 2.9
2015-May-03 04:00N 57°36' W 169°00'1111.4 080 / 11022.7 3.6-2.2 3.2
2015-May-03 03:00N 57°30' W 168°42'3 3.2 050 / 21022.5 2.2-2.0 3.7
2015-May-03 02:00N 57°30' W 168°36'10 9.7 360 / 31021.9 1.9-1.7 3.5
2015-May-03 01:00N 57°30' W 168°18'10 9.7 300 / 41022.0 1.8-2.7 3.0
2015-May-03 00:00N 57°30' W 168°00'6 6.4 340 / 41021.9 2.6-1.6 2.9
2015-May-02 23:00N 57°30' W 167°48'10 9.7 1021.6 2.5-3.1 2.1
2015-May-02 22:00N 57°30' W 167°30'6 6.4 340 / 81021.3 1.7-1.1 2.1
2015-May-02 21:00N 57°30' W 167°18'10 9.7 330 / 81021.1 1.9-0.6 2.3
2015-May-02 20:00N 57°30' W 167°00'9 8.8 350 / 21020.6 3.3 0.8 2.5
2015-May-02 19:00N 57°24' W 166°48'6 6.5 330 / 51020.2 2.6-0.1 2.5
2015-May-02 18:00N 57°24' W 166°36'6 6.5 330 / 51019.7 2.6 0.3 2.6
2015-May-02 17:00N 57°24' W 166°24'7 6.8 280 / 21019.2 2.5 0.7 2.6
2015-May-02 16:00N 57°18' W 166°18'1313.0 320 / 41018.8 2.6 1.2 3.0
2015-May-02 15:00N 57°18' W 165°54'7 6.8 230 / 21018.910.8 0.5 3.8 1.2-3.1
2015-May-02 14:00N 57°12' W 165°48'15 7.7 250 / 41018.8 2.9 0.7 3.1
2015-May-02 12:00N 57°00' W 165°30'7 6.5 190 / 11018.510.8 0.5 3.3 1.8 3.3
2015-May-02 11:00N 57°00' W 165°18'1413.7 180 / 51018.7 3.4 1.7 3.8
2015-May-02 10:00N 56°48' W 165°06'1211.5 130 / 21018.4 3.6 1.0 4.2
2015-May-02 09:00N 56°54' W 164°48'3 3.3 100 / 21018.310.8 4.5 0.9-4.0
2015-May-02 08:00N 56°54' W 164°42'9 8.9 100 / 31018.2 3.6 0.4 4.2
2015-May-02 07:00N 56°48' W 164°30'10 9.9 060 / 11018.0 3.9 0.1 4.5
2015-May-02 06:00N 56°48' W 164°12'7 6.6 090 / 31017.3 3.9-0.0 4.9
2015-May-02 05:00N 56°48' W 164°00'0 0.0 110 / 21017.3 4.1 0.2 4.4
2015-May-02 04:00N 56°48' W 164°00'3 3.3 120 / 31017.1 5.2 1.0 4.1
2015-May-02 03:00N 56°48' W 164°06'0 0.0 220 / 11016.910.8 1.0 5.6-1.8 5.1
2015-May-02 02:00N 56°48' W 164°06'3 3.3 150 / 31016.7 5.3-1.1 4.2
2015-May-02 01:00N 56°48' W 164°12'0 0.0 160 / 31016.8 5.0-1.6 4.4
2015-May-02 00:00N 56°48' W 164°12'6 6.0 170 / 51017.0 4.9-1.4 4.2
2015-May-01 23:00N 56°54' W 164°12'6 6.0 140 / 51016.8 4.0 0.5 4.2
2015-May-01 22:00N 56°48' W 164°12'0 0.0 120 / 51016.5 4.5 0.9 4.1
2015-May-01 21:00N 56°48' W 164°12'3 3.3 100 / 31016.2 4.3 0.6 4.2
2015-May-01 20:00N 56°48' W 164°06'3 3.3 080 / 41016.2 5.3 0.4 3.9
2015-May-01 19:00N 56°48' W 164°12'3 3.3 030 / 21015.6 4.5 0.6 3.9
2015-May-01 18:00N 56°48' W 164°06'0 0.0 020 / 41015.7 3.3 0.6 3.8
2015-May-01 17:00N 56°48' W 164°06'0 0.0 240 / 81015.3 3.6-0.4 3.7
2015-May-01 16:00N 56°48' W 164°06'9 8.9 230 / 101014.9 3.5-0.4 3.7
2015-May-01 15:00N 56°42' W 163°54'7 6.8 230 / 71014.9 3.2 0.6 3.8
2015-May-01 14:00N 56°36' W 163°48'1212.0 290 / 61014.7 2.8 0.6 4.1
2015-May-01 13:00N 56°48' W 163°48'7 6.8 270 / 81014.3 2.9-0.0 3.9
2015-May-01 12:00N 56°54' W 163°42'1414.4 270 / 91014.410.8 0.5 3.8 0.5-3.8
2015-May-01 11:00N 57°00' W 164°06'7 6.8 260 / 81014.2 2.4 0.6 3.8
2015-May-01 10:00N 56°54' W 164°12'6 6.0 260 / 81013.9 2.2 0.5 3.8
2015-May-01 09:00N 56°48' W 164°12'0 0.0 270 / 91013.810.8 0.5 3.0 -3.9
2015-May-01 08:00N 56°48' W 164°12'7 6.6 190 / 41013.2 3.3 0.7 3.9
2015-May-01 07:00N 56°48' W 164°00'3 3.3 240 / 21013.1 3.2 0.4 3.9
2015-May-01 06:00N 56°48' W 163°54'3 3.3 230 / 21012.5 5.4 3.2 -4.0
2015-May-01 05:00N 56°48' W 164°00'0 0.0 300 / 71012.0 3.3 0.1 4.0
2015-May-01 03:00N 56°48' W 164°00'0 0.0 300 / 101011.6 3.5 0.7 3.9
2015-May-01 02:00N 56°48' W 164°00'7 6.8 250 / 71011.5 4.7 0.6 4.0
2015-May-01 01:00N 56°54' W 164°06'7 6.8 250 / 91011.1 4.0 1.1 3.9
2015-May-01 00:00N 56°48' W 164°00'0 0.0 230 / 81011.2 3.8 1.6 3.8
2015-Apr-30 23:00N 56°48' W 164°00'0 0.0 230 / 81011.1 4.1 0.9 3.8
2015-Apr-30 22:00N 56°48' W 164°00'1413.7 250 / 81010.9 3.6 0.8 3.6
2015-Apr-30 21:00N 56°36' W 164°12'1212.4 220 / 81010.5 3.9 1.3 3.8
2015-Apr-30 20:00N 56°24' W 164°18'1212.5 200 / 81010.2 4.2 1.5 4.3
2015-Apr-30 19:00N 56°12' W 164°24'1212.5 250 / 51010.1 3.2 4.3
2015-Apr-30 18:00N 56°00' W 164°30'2613.0 240 / 71009.8 3.7 0.9 4.2
2015-Apr-30 16:00N 55°36' W 164°48'1413.8 240 / 121009.0 3.7 0.7 4.4
2015-Apr-30 15:00N 55°24' W 165°00'1413.8 270 / 111008.8 3.2 4.4
2015-Apr-30 14:00N 55°12' W 165°12'2613.1 250 / 131008.7 3.9 1.0 4.5
2015-Apr-30 12:00N 54°48' W 165°30'3207.5 250 / 131008.710.8 1.0 4.5 1.6-5.0
2015-Apr-30 11:59N 54°48' W 165°36'1212.2 250 / 171008.7 4.1 5.0
2015-Apr-30 11:00N 54°42' W 165°54'7415.9 240 / 171008.4 4.2 1.2 4.9
2015-Apr-30 10:59N 54°36' W 165°48'2613.2 250 / 171008.6 4.3 4.9
2015-Apr-30 09:00N 54°12' W 166°06'1212.1 240 / 191008.310.8 1.0 4.5 -4.9
2015-Apr-30 08:00N 54°06' W 166°24'7417.5 250 / 181008.0 3.4 1.0 4.9
2015-Apr-30 07:59N 54°00' W 166°18'9 9.4 260 / 181008.2 3.8 4.9
2015-Apr-30 07:00N 53°54' W 166°30'0 0.0 190 / 41007.6 3.8 0.1 5.3
2015-Apr-30 05:00N 53°54' W 166°30'0 0.0 240 / 91006.2 4.5-0.6 6.0
2015-Apr-30 04:00N 53°54' W 166°30'0 0.0 240 / 111005.6 5.7-0.4 5.3
2015-Apr-30 03:00N 53°54' W 166°30'1212.2 290 / 61005.3 5.6-0.4 5.0
2015-Apr-30 02:00N 54°00' W 166°48'1212.2 270 / 201005.1 3.9 1.4 4.9
2015-Apr-30 01:00N 54°06' W 167°06'0 0.0 270 / 191004.5 3.8 1.7 5.0
2015-Apr-30 00:00N 54°06' W 167°06'7 7.0 270 / 181004.1 4.2 1.9 5.0
2015-Apr-29 23:00N 54°00' W 167°00'0 0.0 250 / 211003.8 4.2 1.9 5.0
2015-Apr-29 22:00N 54°00' W 167°00'0 0.0 250 / 181003.7 4.5 2.2 5.0
2015-Apr-29 21:00N 54°00' W 167°00'0 0.0 260 / 201003.3 3.9 1.5 5.0
2015-Apr-29 20:00N 54°00' W 167°00'0 0.0 250 / 191002.9 3.6 1.9 4.9
2015-Apr-29 19:00N 54°00' W 167°00'4 3.5 280 / 151002.5 3.8 2.0 4.9
2015-Apr-29 18:00N 54°00' W 166°54'4 3.5 260 / 191002.0 5.4 1.5 3.7 1.4-4.9
2015-Apr-29 17:00N 54°00' W 167°00'7 7.0 260 / 181001.1 4.1 2.2 4.9
2015-Apr-29 16:00N 54°06' W 167°06'9 9.3 270 / 181000.5 4.0 2.2 4.9
2015-Apr-29 15:00N 54°00' W 166°54'0 0.0 250 / 191000.1 5.4 1.0 4.8 2.1-4.9
2015-Apr-29 14:00N 54°00' W 166°54'7 7.1 270 / 18999.7 4.6 1.3 4.9
2015-Apr-29 13:00N 54°00' W 166°42'4 3.5 270 / 21998.8 4.6 1.9 4.6
2015-Apr-29 12:00N 54°00' W 166°36'7 7.0 330 / 15997.7 5.0 0.4 4.9
2015-Apr-29 11:00N 53°54' W 166°30'0 0.0 310 / 13996.9 4.9 1.0 4.9
2015-Apr-29 10:00N 53°54' W 166°30'0 0.0 320 / 17996.2 4.7 1.5 5.0
2015-Apr-29 09:00N 53°54' W 166°30'0 0.0 310 / 18994.7 5.0 1.4 4.9
2015-Apr-29 08:00N 53°54' W 166°30'0 0.0 270 / 5993.7 5.8 1.3 4.9
2015-Apr-29 07:00N 53°54' W 166°30'0 0.0 020 / 5992.6 5.4 2.0 5.0
2015-Apr-29 06:00N 53°54' W 166°30'0 0.0 991.6 5.7 1.5 5.1
2015-Apr-29 05:00N 53°54' W 166°30'4 3.5 240 / 4991.0 5.8 2.2 5.0
2015-Apr-29 04:00N 53°54' W 166°24'4 3.5 240 / 11990.2 6.1 1.2 5.3
2015-Apr-29 03:00N 53°54' W 166°18'9 9.3 200 / 13989.6 5.4 0.5 6.3 1.7-5.4
2015-Apr-29 02:00N 53°48' W 166°30'0 0.0 230 / 11989.3 5.6 1.5 5.5
2015-Apr-29 01:00N 53°48' W 166°30'7 7.0 240 / 11989.1 5.6 1.8 5.4
2015-Apr-29 00:00N 53°54' W 166°24'7 7.0 250 / 10988.9 5.7 1.9 5.2
2015-Apr-28 23:00N 54°00' W 166°18'1312.5 150 / 8988.9 5.2 3.7 4.9
2015-Apr-28 22:00N 54°12' W 166°12'1413.9 140 / 23989.8 5.0 1.2 4.8
2015-Apr-28 21:00N 54°24' W 166°00'1413.9 140 / 30991.2 3.3 1.7 4.8
2015-Apr-28 20:00N 54°36' W 165°48'9 9.2 140 / 25993.4 4.0 1.9 4.6
2015-Apr-28 19:00N 54°42' W 165°36'1615.9 140 / 27994.7 3.1 1.8 4.8
2015-Apr-28 18:00N 54°54' W 165°18'1413.9 150 / 24996.6 5.4 1.0 3.2 1.7-4.8
2015-Apr-28 17:00N 54°42' W 165°30'1413.9 160 / 26997.6 3.4 1.8 4.8
2015-Apr-28 16:00N 54°30' W 165°42'1413.9 170 / 20998.5 3.5 1.7 4.6
2015-Apr-28 15:00N 54°18' W 165°54'0 0.0 160 / 18999.3 4.5 1.1 4.8
2015-Apr-28 14:00N 54°18' W 165°54'7 6.9 170 / 151000.5 4.4 1.2 4.8
2015-Apr-28 13:00N 54°24' W 166°00'0 0.0 160 / 111001.3 4.4 0.6 4.6
2015-Apr-28 12:00N 54°24' W 166°00'0 0.0 180 / 81002.510.8 4.0 1.1 4.6
2015-Apr-28 11:00N 54°24' W 166°00'7 6.9 220 / 81003.1 3.9 0.7 4.6
2015-Apr-28 10:00N 54°30' W 166°06'7 6.9 210 / 121003.9 3.6 0.8 4.8
2015-Apr-28 09:00N 54°36' W 166°12'6 6.0 260 / 121004.1 3.2 0.7 4.8
2015-Apr-28 08:00N 54°42' W 166°12'7 6.9 250 / 131004.3 3.9 0.4 4.9
2015-Apr-28 07:00N 54°48' W 166°06'1212.0 250 / 171004.4 3.9 0.9 4.8
2015-Apr-28 06:00N 54°42' W 165°48'6 6.0 260 / 131004.3 5.4 1.5 4.2 1.5-4.8
2015-Apr-28 05:00N 54°48' W 165°48'7 6.9 260 / 131004.5 3.7 0.8 4.5
2015-Apr-28 04:00N 54°48' W 165°36'12 6.0 240 / 111004.5 3.9 1.7 4.8
2015-Apr-28 02:00N 54°54' W 165°18'9 9.1 240 / 151004.0 4.3 2.3 4.8
2015-Apr-28 01:00N 55°00' W 165°06'3 3.4 250 / 161004.1 4.2 2.1 4.8
2015-Apr-28 00:00N 55°00' W 165°00'7 6.9 230 / 151004.3 4.5 2.0 4.8
2015-Apr-27 23:00N 54°54' W 164°54'7 6.9 250 / 141004.7 4.5 2.5 4.8
2015-Apr-27 22:00N 54°48' W 164°48'7 6.9 220 / 121005.0 4.0 2.7 4.6
2015-Apr-27 21:00N 54°42' W 164°42'9 9.2 230 / 151004.9 2.2 1.0 4.4 2.2 4.8
2015-Apr-27 20:00N 54°36' W 164°54'18 9.0 200 / 151004.8 4.5 2.8 4.6
2015-Apr-27 18:00N 54°18' W 164°54'7 7.0 140 / 91004.9 3.6 2.1 4.8
2015-Apr-27 17:00N 54°18' W 164°42'0 0.0 140 / 81004.9 3.5 1.9 4.8
2015-Apr-27 16:00N 54°18' W 164°42'0 0.0 160 / 71005.0 2.9 1.5 4.8
2015-Apr-27 15:00N 54°18' W 164°42'9 9.2 180 / 91005.3 2.9 1.3 4.8
2015-Apr-27 14:00N 54°24' W 164°54'7 7.0 160 / 131005.5 3.6 1.8 4.8
2015-Apr-27 13:00N 54°24' W 165°06'7 6.9 190 / 141005.6 3.8 1.9 4.8
2015-Apr-27 12:00N 54°18' W 165°12'7 7.0 170 / 141006.0 4.1 1.4 4.8
2015-Apr-27 11:00N 54°18' W 165°24'4 3.5 180 / 141006.1 4.1 0.6 4.8
2015-Apr-27 10:00N 54°18' W 165°18'1414.0 170 / 141007.0 3.9 0.2 4.8
2015-Apr-27 09:00N 54°18' W 164°54'1414.0 160 / 61008.1 3.6 1.0 4.8
2015-Apr-27 08:00N 54°18' W 164°30'1515.2 290 / 71008.8 3.2 0.8 4.7
2015-Apr-27 07:00N 54°24' W 164°06'1212.1 240 / 121009.0 3.6 1.1 4.8
2015-Apr-27 06:00N 54°30' W 163°48'1010.5 260 / 121009.1 3.5 2.0 5.0
2015-Apr-27 05:00N 54°30' W 163°30'1413.9 250 / 121009.3 4.9 2.4 5.2
2015-Apr-27 04:00N 54°30' W 163°06'1212.0 140 / 51010.4 5.3 2.7 5.4
2015-Apr-27 03:00N 54°36' W 162°48'1413.9 350 / 221010.3 4.1 1.3 4.9
2015-Apr-27 02:00N 54°48' W 162°36'1212.0 300 / 161010.5 4.0 1.5 4.6
2015-Apr-27 01:00N 54°54' W 162°18'1212.0 320 / 191010.7 3.8 1.4 4.8
2015-Apr-27 00:00N 55°00' W 162°00'7 6.9 310 / 221009.7 5.5 1.3 4.9
2015-Apr-26 23:00N 55°06' W 161°54'7 6.9 300 / 281010.1 5.1 1.0 4.5
2015-Apr-26 22:00N 55°06' W 161°42'0 0.0 270 / 71010.4 7.5 1.4 4.6
2015-Apr-26 21:00N 55°06' W 161°42'0 0.0 020 / 171010.3 8.8 0.5 4.5
2015-Apr-26 20:00N 55°06' W 161°42'6 6.0 350 / 51010.6 8.1-0.0 4.4
2015-Apr-26 19:00N 55°12' W 161°42'6 6.0 310 / 121010.5 6.1 0.6 4.4
2015-Apr-26 18:00N 55°06' W 161°42'3 3.4 300 / 171010.6 5.5 0.7 4.4
2015-Apr-26 17:00N 55°06' W 161°36'0 0.0 300 / 111010.7 4.8 0.1 4.4
2015-Apr-26 16:00N 55°06' W 161°36'3 3.4 270 / 161010.6 4.5 0.2 4.4
2015-Apr-26 15:00N 55°06' W 161°30'7 6.9 270 / 191010.4 0.5 4.8-1.0-4.5
2015-Apr-26 14:00N 55°06' W 161°42'0 0.0 310 / 191009.8 4.8-0.5 4.4
2015-Apr-26 13:00N 55°06' W 161°42'6 6.0 310 / 131009.7 5.3-1.2 4.5
2015-Apr-26 12:00N 55°12' W 161°42'0 0.0 330 / 141009.2 5.1 0.2 4.4
2015-Apr-26 11:00N 55°12' W 161°42'3 3.4 360 / 251008.4 5.1-0.1 4.4
2015-Apr-26 10:00N 55°12' W 161°36'1010.3 010 / 321008.6 4.4 0.8 4.3
2015-Apr-26 09:00N 55°12' W 161°18'1211.9 350 / 211008.6 3.4 0.9 4.5
2015-Apr-26 08:00N 55°18' W 161°00'   350 / 201008.0 4.0 0.8 4.9

Dump ship's entire track history